Capt. Ted — WDD6210 — position and weather

sailwx.info

Track history (hours):
 
Tides and Currents Weather Stations Pressure Air Temp Water Temp Dewpoint Dewpoint Depression Visibility Wind Speed Wind Dir Waves Ship Positions

Capt. Ted

Owner: Salisbury Towing Corporation, Havre de Grace, MD. More information available from US FCC via Universal Licensing System and Coast Guard Vessel Documentation Center.

Last reported at 2016-Dec-03 10:22 UTC. Time now 2016-Dec-03 11:38 UTC.
Position N 39°16' W 076°35'.

Length 32 m; draft 2.8 m.

Type: Tug. MMSI: 367169710.

Date/timePositionNaut miles runAvg speedWind from/ knotsBaromVisibWave heightAir tempDewpointWater temp
2016-Dec-03 10:22N 39°16' W 076°35'0 0.0
2016-Dec-03 09:34N 39°16' W 076°35'0 0.0
2016-Dec-03 08:33N 39°16' W 076°35'0 0.0
2016-Dec-03 07:34N 39°16' W 076°35'2 2.4
2016-Dec-03 06:34N 39°14' W 076°33'6 5.9
2016-Dec-03 05:34N 39°11' W 076°26'19 3.7
2016-Dec-03 00:31N 39°22' W 076°07'4 4.0
2016-Dec-02 23:26N 39°25' W 076°03'3 3.7
2016-Dec-02 22:33N 39°28' W 076°03'4 3.9
2016-Dec-02 21:33N 39°32' W 076°05'3 2.8
2016-Dec-02 20:34N 39°34' W 076°06'0 0.0
2016-Dec-02 19:33N 39°34' W 076°06'0 0.0
2016-Dec-02 18:34N 39°34' W 076°06'0 0.0
2016-Dec-02 17:34N 39°34' W 076°06'2 2.0
2016-Dec-02 16:34N 39°33' W 076°05'7 7.5
2016-Dec-02 15:34N 39°25' W 076°02'21 9.1
2016-Dec-02 13:13N 39°12' W 076°24'5 7.8
2016-Dec-02 12:34N 39°12' W 076°30'5 5.1
2016-Dec-02 11:34N 39°16' W 076°35'1 1.2
2016-Dec-02 10:34N 39°15' W 076°36'0 0.5
2016-Dec-02 09:33N 39°15' W 076°36'1 1.3
2016-Dec-02 08:34N 39°15' W 076°34'5 5.1
2016-Dec-02 07:34N 39°12' W 076°30'4 3.9
2016-Dec-02 06:34N 39°12' W 076°25'20 4.7
2016-Dec-02 02:21N 39°24' W 076°04'3 3.7
2016-Dec-02 01:33N 39°26' W 076°02'4 3.8
2016-Dec-02 00:33N 39°29' W 076°05'4 3.6
2016-Dec-01 23:33N 39°33' W 076°04'1 0.9
2016-Dec-01 22:34N 39°32' W 076°05'7 7.0
2016-Dec-01 21:34N 39°25' W 076°02'8 7.6
2016-Dec-01 20:34N 39°21' W 076°10'16 7.0
2016-Dec-01 18:15N 39°07' W 076°20'5 7.5
2016-Dec-01 17:34N 39°02' W 076°22'60 7.5
2016-Dec-01 09:32N 38°01' W 076°20'9 8.9
2016-Dec-01 08:33N 38°06' W 076°29'45 5.7
2016-Dec-01 00:33N 38°42' W 077°05'7 6.3
2016-Nov-30 23:31N 38°48' W 077°02'1 0.8
2016-Nov-30 22:33N 38°47' W 077°02'6 6.2
2016-Nov-30 21:32N 38°42' W 077°06'6 5.9
2016-Nov-30 20:33N 38°37' W 077°10'44 4.3
2016-Nov-30 10:10N 38°05' W 076°30'5 6.7
2016-Nov-30 09:28N 38°03' W 076°24'6 6.1
2016-Nov-30 08:33N 38°02' W 076°17'50 7.1
2016-Nov-30 01:29N 38°52' W 076°26'7 6.8
2016-Nov-30 00:30N 38°58' W 076°23'6 6.5
2016-Nov-29 23:32N 39°04' W 076°24'6 6.3
2016-Nov-29 22:32N 39°11' W 076°26'6 6.6
2016-Nov-29 21:33N 39°14' W 076°33'2 2.3
2016-Nov-29 20:34N 39°16' W 076°35'0 0.0
2016-Nov-29 19:34N 39°16' W 076°35'0 0.0
2016-Nov-29 18:34N 39°16' W 076°35'0 0.0
2016-Nov-29 17:34N 39°16' W 076°35'0 0.0
2016-Nov-29 16:33N 39°16' W 076°35'0 0.0
2016-Nov-29 15:34N 39°16' W 076°35'0 0.0
2016-Nov-29 14:33N 39°16' W 076°35'0 0.0
2016-Nov-29 13:34N 39°16' W 076°35'0 0.0
2016-Nov-29 12:33N 39°16' W 076°35'0 0.0
2016-Nov-29 11:33N 39°16' W 076°35'1 1.2
2016-Nov-29 10:33N 39°15' W 076°36'0 0.0
2016-Nov-29 09:34N 39°15' W 076°36'0 0.0
2016-Nov-29 08:33N 39°15' W 076°36'0 0.0
2016-Nov-29 07:33N 39°15' W 076°36'0 0.0
2016-Nov-29 06:34N 39°15' W 076°36'0 0.0
2016-Nov-29 05:34N 39°15' W 076°36'0 0.0
2016-Nov-29 04:33N 39°15' W 076°36'0 0.0
2016-Nov-29 03:33N 39°15' W 076°36'0 0.0
2016-Nov-29 02:33N 39°15' W 076°36'0 0.1
2016-Nov-29 01:33N 39°15' W 076°36'0 0.0
2016-Nov-29 00:33N 39°15' W 076°36'1 1.3
2016-Nov-28 23:34N 39°16' W 076°35'6 6.3
2016-Nov-28 22:33N 39°11' W 076°29'6 5.5
2016-Nov-28 21:33N 39°13' W 076°22'19 6.2
2016-Nov-28 18:23N 39°25' W 076°02'5 6.0
2016-Nov-28 17:34N 39°29' W 076°05'5 5.0
2016-Nov-28 16:33N 39°34' W 076°06'0 0.1
2016-Nov-28 14:33N 39°34' W 076°06'0 0.0
2016-Nov-28 13:33N 39°34' W 076°06'0 0.0
2016-Nov-28 12:33N 39°34' W 076°06'0 0.0
2016-Nov-28 11:33N 39°34' W 076°06'0 0.0
2016-Nov-28 10:33N 39°34' W 076°06'0 0.0
2016-Nov-28 09:33N 39°34' W 076°06'0 0.0
2016-Nov-28 08:34N 39°34' W 076°06'0 0.0
2016-Nov-28 07:33N 39°34' W 076°06'0 0.0
2016-Nov-28 06:33N 39°34' W 076°06'0 0.0
2016-Nov-28 05:34N 39°34' W 076°06'3 2.8
2016-Nov-28 04:33N 39°32' W 076°05'7 6.8
2016-Nov-28 03:34N 39°25' W 076°02'8 8.0
2016-Nov-28 02:34N 39°21' W 076°11'19 8.4
2016-Nov-28 00:19N 39°04' W 076°21'7 8.6
2016-Nov-27 23:32N 38°57' W 076°24'55 7.9
2016-Nov-27 16:33N 38°02' W 076°21'11 0.3
2016-Nov-26 01:06N 38°07' W 076°33'4 7.5
2016-Nov-26 00:31N 38°04' W 076°28'7 7.3
2016-Nov-25 23:32N 38°00' W 076°21'50 3.3
2016-Nov-25 08:31N 38°50' W 076°26'6 6.8
2016-Nov-25 07:33N 38°56' W 076°24'7 6.6
2016-Nov-25 06:33N 39°03' W 076°22'7 6.7
2016-Nov-25 05:32N 39°09' W 076°19'16 7.4
2016-Nov-25 03:21N 39°23' W 076°07'6 7.0
2016-Nov-25 02:33N 39°27' W 076°02'6 6.3
2016-Nov-25 01:33N 39°33' W 076°05'2 2.0
2016-Nov-25 00:34N 39°34' W 076°06'0 0.0
2016-Nov-24 23:33N 39°34' W 076°06'0 0.1
2016-Nov-24 22:34N 39°34' W 076°06'4 4.1
2016-Nov-24 21:34N 39°30' W 076°05'6 6.5
2016-Nov-24 20:33N 39°24' W 076°04'8 8.0
2016-Nov-24 19:33N 39°20' W 076°12'17 7.6
2016-Nov-24 17:18N 39°04' W 076°21'6 8.1
2016-Nov-24 16:33N 38°58' W 076°23'  
Track history (hours):
 
Tides and Currents Weather Stations Pressure Air Temp Water Temp Dewpoint Dewpoint Depression Visibility Wind Speed Wind Dir Waves Ship Positions

Capt. Ted

Owner: Salisbury Towing Corporation, Havre de Grace, MD. More information available from US FCC via Universal Licensing System and Coast Guard Vessel Documentation Center.

Last reported at 2016-Dec-03 10:22 UTC. Time now 2016-Dec-03 11:38 UTC.
Position N 39°16' W 076°35'.

Length 32 m; draft 2.8 m.

Type: Tug. MMSI: 367169710.

Date/timePositionNaut miles runAvg speedWind from/ knotsBaromVisibWave heightAir tempDewpointWater temp
2016-Dec-03 10:22N 39°16' W 076°35'0 0.0
2016-Dec-03 09:34N 39°16' W 076°35'0 0.0
2016-Dec-03 08:33N 39°16' W 076°35'0 0.0
2016-Dec-03 07:34N 39°16' W 076°35'2 2.4
2016-Dec-03 06:34N 39°14' W 076°33'6 5.9
2016-Dec-03 05:34N 39°11' W 076°26'19 3.7
2016-Dec-03 00:31N 39°22' W 076°07'4 4.0
2016-Dec-02 23:26N 39°25' W 076°03'3 3.7
2016-Dec-02 22:33N 39°28' W 076°03'4 3.9
2016-Dec-02 21:33N 39°32' W 076°05'3 2.8
2016-Dec-02 20:34N 39°34' W 076°06'0 0.0
2016-Dec-02 19:33N 39°34' W 076°06'0 0.0
2016-Dec-02 18:34N 39°34' W 076°06'0 0.0
2016-Dec-02 17:34N 39°34' W 076°06'2 2.0
2016-Dec-02 16:34N 39°33' W 076°05'7 7.5
2016-Dec-02 15:34N 39°25' W 076°02'21 9.1
2016-Dec-02 13:13N 39°12' W 076°24'5 7.8
2016-Dec-02 12:34N 39°12' W 076°30'5 5.1
2016-Dec-02 11:34N 39°16' W 076°35'1 1.2
2016-Dec-02 10:34N 39°15' W 076°36'0 0.5
2016-Dec-02 09:33N 39°15' W 076°36'1 1.3
2016-Dec-02 08:34N 39°15' W 076°34'5 5.1
2016-Dec-02 07:34N 39°12' W 076°30'4 3.9
2016-Dec-02 06:34N 39°12' W 076°25'20 4.7
2016-Dec-02 02:21N 39°24' W 076°04'3 3.7
2016-Dec-02 01:33N 39°26' W 076°02'4 3.8
2016-Dec-02 00:33N 39°29' W 076°05'4 3.6
2016-Dec-01 23:33N 39°33' W 076°04'1 0.9
2016-Dec-01 22:34N 39°32' W 076°05'7 7.0
2016-Dec-01 21:34N 39°25' W 076°02'8 7.6
2016-Dec-01 20:34N 39°21' W 076°10'16 7.0
2016-Dec-01 18:15N 39°07' W 076°20'5 7.5
2016-Dec-01 17:34N 39°02' W 076°22'60 7.5
2016-Dec-01 09:32N 38°01' W 076°20'9 8.9
2016-Dec-01 08:33N 38°06' W 076°29'45 5.7
2016-Dec-01 00:33N 38°42' W 077°05'7 6.3
2016-Nov-30 23:31N 38°48' W 077°02'1 0.8
2016-Nov-30 22:33N 38°47' W 077°02'6 6.2
2016-Nov-30 21:32N 38°42' W 077°06'6 5.9
2016-Nov-30 20:33N 38°37' W 077°10'44 4.3
2016-Nov-30 10:10N 38°05' W 076°30'5 6.7
2016-Nov-30 09:28N 38°03' W 076°24'6 6.1
2016-Nov-30 08:33N 38°02' W 076°17'50 7.1
2016-Nov-30 01:29N 38°52' W 076°26'7 6.8
2016-Nov-30 00:30N 38°58' W 076°23'6 6.5
2016-Nov-29 23:32N 39°04' W 076°24'6 6.3
2016-Nov-29 22:32N 39°11' W 076°26'6 6.6
2016-Nov-29 21:33N 39°14' W 076°33'2 2.3
2016-Nov-29 20:34N 39°16' W 076°35'0 0.0
2016-Nov-29 19:34N 39°16' W 076°35'0 0.0
2016-Nov-29 18:34N 39°16' W 076°35'0 0.0
2016-Nov-29 17:34N 39°16' W 076°35'0 0.0
2016-Nov-29 16:33N 39°16' W 076°35'0 0.0
2016-Nov-29 15:34N 39°16' W 076°35'0 0.0
2016-Nov-29 14:33N 39°16' W 076°35'0 0.0
2016-Nov-29 13:34N 39°16' W 076°35'0 0.0
2016-Nov-29 12:33N 39°16' W 076°35'0 0.0
2016-Nov-29 11:33N 39°16' W 076°35'1 1.2
2016-Nov-29 10:33N 39°15' W 076°36'0 0.0
2016-Nov-29 09:34N 39°15' W 076°36'0 0.0
2016-Nov-29 08:33N 39°15' W 076°36'0 0.0
2016-Nov-29 07:33N 39°15' W 076°36'0 0.0
2016-Nov-29 06:34N 39°15' W 076°36'0 0.0
2016-Nov-29 05:34N 39°15' W 076°36'0 0.0
2016-Nov-29 04:33N 39°15' W 076°36'0 0.0
2016-Nov-29 03:33N 39°15' W 076°36'0 0.0
2016-Nov-29 02:33N 39°15' W 076°36'0 0.1
2016-Nov-29 01:33N 39°15' W 076°36'0 0.0
2016-Nov-29 00:33N 39°15' W 076°36'1 1.3
2016-Nov-28 23:34N 39°16' W 076°35'6 6.3
2016-Nov-28 22:33N 39°11' W 076°29'6 5.5
2016-Nov-28 21:33N 39°13' W 076°22'19 6.2
2016-Nov-28 18:23N 39°25' W 076°02'5 6.0
2016-Nov-28 17:34N 39°29' W 076°05'5 5.0
2016-Nov-28 16:33N 39°34' W 076°06'0 0.1
2016-Nov-28 14:33N 39°34' W 076°06'0 0.0
2016-Nov-28 13:33N 39°34' W 076°06'0 0.0
2016-Nov-28 12:33N 39°34' W 076°06'0 0.0
2016-Nov-28 11:33N 39°34' W 076°06'0 0.0
2016-Nov-28 10:33N 39°34' W 076°06'0 0.0
2016-Nov-28 09:33N 39°34' W 076°06'0 0.0
2016-Nov-28 08:34N 39°34' W 076°06'0 0.0
2016-Nov-28 07:33N 39°34' W 076°06'0 0.0
2016-Nov-28 06:33N 39°34' W 076°06'0 0.0
2016-Nov-28 05:34N 39°34' W 076°06'3 2.8
2016-Nov-28 04:33N 39°32' W 076°05'7 6.8
2016-Nov-28 03:34N 39°25' W 076°02'8 8.0
2016-Nov-28 02:34N 39°21' W 076°11'19 8.4
2016-Nov-28 00:19N 39°04' W 076°21'7 8.6
2016-Nov-27 23:32N 38°57' W 076°24'55 7.9
2016-Nov-27 16:33N 38°02' W 076°21'11 0.3
2016-Nov-26 01:06N 38°07' W 076°33'4 7.5
2016-Nov-26 00:31N 38°04' W 076°28'7 7.3
2016-Nov-25 23:32N 38°00' W 076°21'50 3.3
2016-Nov-25 08:31N 38°50' W 076°26'6 6.8
2016-Nov-25 07:33N 38°56' W 076°24'7 6.6
2016-Nov-25 06:33N 39°03' W 076°22'7 6.7
2016-Nov-25 05:32N 39°09' W 076°19'16 7.4
2016-Nov-25 03:21N 39°23' W 076°07'6 7.0
2016-Nov-25 02:33N 39°27' W 076°02'6 6.3
2016-Nov-25 01:33N 39°33' W 076°05'2 2.0
2016-Nov-25 00:34N 39°34' W 076°06'0 0.0
2016-Nov-24 23:33N 39°34' W 076°06'0 0.1
2016-Nov-24 22:34N 39°34' W 076°06'4 4.1
2016-Nov-24 21:34N 39°30' W 076°05'6 6.5
2016-Nov-24 20:33N 39°24' W 076°04'8 8.0
2016-Nov-24 19:33N 39°20' W 076°12'17 7.6
2016-Nov-24 17:18N 39°04' W 076°21'6 8.1
2016-Nov-24 16:33N 38°58' W 076°23'  

Dump ship's entire track history